ANA265 RJTT-RJFF
Flight info
| Callsign | ANA265 |
|---|---|
| Flight time | 1h 49m |
| Altitude | 36000 |
| Route | GUSRO Y20 KIRIN |
| Aircraft | A320/M-SDE3FGHIRWY/LB1 |
Departure
| Time | 2026-05-08 09:13 |
|---|---|
| Airport | Tokyo Haneda International Airport (RJTT) |
Arrival
| Time | 2026-05-08 11:02 |
|---|---|
| Airport | Fukuoka Airport (RJFF) |
| Time | Latitude | Longitude | Altitude | Speed | Heading |
|---|---|---|---|---|---|
| 2026-05-08 09:04 | 35.55023 | 139.77985 | 25 ft | 0 kts | 328° |
| 2026-05-08 09:06 | 35.55069 | 139.77950 | 25 ft | 20 kts | 329° |
| 2026-05-08 09:06 | 35.55263 | 139.77806 | 23 ft | 43 kts | 328° |
| 2026-05-08 09:06 | 35.55538 | 139.77617 | 23 ft | 45 kts | 334° |
| 2026-05-08 09:06 | 35.55806 | 139.77419 | 23 ft | 45 kts | 330° |
| 2026-05-08 09:07 | 35.56078 | 139.77235 | 24 ft | 44 kts | 327° |
| 2026-05-08 09:07 | 35.56212 | 139.77104 | 23 ft | 3 kts | 251° |
| 2026-05-08 09:07 | 35.56211 | 139.77026 | 23 ft | 15 kts | 270° |
| 2026-05-08 09:07 | 35.56154 | 139.76944 | 25 ft | 3 kts | 213° |
| 2026-05-08 09:08 | 35.56153 | 139.76944 | 25 ft | 0 kts | 213° |
| 2026-05-08 09:10 | 35.56143 | 139.76935 | 23 ft | 8 kts | 213° |
| 2026-05-08 09:10 | 35.56047 | 139.76879 | 23 ft | 17 kts | 175° |
| 2026-05-08 09:11 | 35.55971 | 139.76930 | 23 ft | 0 kts | 149° |
| 2026-05-08 09:12 | 35.55970 | 139.76931 | 23 ft | 2 kts | 149° |
| 2026-05-08 09:12 | 35.55844 | 139.77019 | 23 ft | 53 kts | 149° |
| 2026-05-08 09:13 | 35.55328 | 139.77378 | 24 ft | 114 kts | 149° |
| 2026-05-08 09:13 | 35.54500 | 139.77993 | 29 ft | 161 kts | 158° |
| 2026-05-08 09:13 | 35.53495 | 139.78686 | 521 ft | 164 kts | 156° |
| 2026-05-08 09:13 | 35.52507 | 139.79380 | 1236 ft | 163 kts | 159° |
| 2026-05-08 09:14 | 35.51527 | 139.80074 | 1875 ft | 165 kts | 161° |
| 2026-05-08 09:14 | 35.50463 | 139.80814 | 2207 ft | 187 kts | 161° |
| 2026-05-08 09:14 | 35.49260 | 139.81643 | 2467 ft | 210 kts | 161° |
| 2026-05-08 09:14 | 35.47845 | 139.82168 | 2738 ft | 217 kts | 192° |
| 2026-05-08 09:15 | 35.46473 | 139.81445 | 3102 ft | 225 kts | 228° |
| 2026-05-08 09:15 | 35.45738 | 139.79718 | 3701 ft | 236 kts | 251° |
| 2026-05-08 09:15 | 35.45258 | 139.77773 | 4481 ft | 240 kts | 253° |
| 2026-05-08 09:15 | 35.44868 | 139.75758 | 5271 ft | 246 kts | 264° |
| 2026-05-08 09:16 | 35.45191 | 139.73671 | 6064 ft | 257 kts | 292° |
| 2026-05-08 09:16 | 35.46381 | 139.71983 | 6818 ft | 274 kts | 321° |
| 2026-05-08 09:16 | 35.48226 | 139.71193 | 7578 ft | 290 kts | 343° |
| 2026-05-08 09:16 | 35.50229 | 139.70783 | 8334 ft | 295 kts | 344° |
| 2026-05-08 09:17 | 35.52273 | 139.70412 | 9063 ft | 300 kts | 344° |
| 2026-05-08 09:17 | 35.54299 | 139.69852 | 9762 ft | 296 kts | 331° |
| 2026-05-08 09:17 | 35.56091 | 139.68685 | 10346 ft | 293 kts | 316° |
| 2026-05-08 09:17 | 35.57566 | 139.66918 | 10523 ft | 304 kts | 299° |
| 2026-05-08 09:18 | 35.58623 | 139.64618 | 10755 ft | 316 kts | 290° |
| 2026-05-08 09:18 | 35.59608 | 139.62166 | 11334 ft | 322 kts | 290° |
| 2026-05-08 09:18 | 35.60627 | 139.59686 | 12027 ft | 326 kts | 291° |
| 2026-05-08 09:18 | 35.61663 | 139.57191 | 12737 ft | 328 kts | 291° |
| 2026-05-08 09:19 | 35.62696 | 139.54711 | 13451 ft | 331 kts | 291° |
| 2026-05-08 09:19 | 35.63741 | 139.52212 | 14433 ft | 314 kts | 290° |
| 2026-05-08 09:19 | 35.64718 | 139.49988 | 16517 ft | 277 kts | 289° |
| 2026-05-08 09:19 | 35.65632 | 139.48011 | 17879 ft | 267 kts | 287° |
| 2026-05-08 09:20 | 35.66139 | 139.45857 | 18005 ft | 264 kts | 264° |
| 2026-05-08 09:20 | 35.65988 | 139.43563 | 18122 ft | 277 kts | 258° |
| 2026-05-08 09:20 | 35.65833 | 139.41132 | 18242 ft | 295 kts | 262° |
| 2026-05-08 09:20 | 35.65787 | 139.38543 | 18394 ft | 311 kts | 264° |
| 2026-05-08 09:21 | 35.65809 | 139.35812 | 18520 ft | 327 kts | 266° |
| 2026-05-08 09:21 | 35.65874 | 139.32976 | 18835 ft | 335 kts | 266° |
| 2026-05-08 09:22 | 35.66216 | 139.15540 | 21882 ft | 345 kts | 266° |
| 2026-05-08 09:23 | 35.66236 | 139.12589 | 22382 ft | 346 kts | 264° |
| 2026-05-08 09:23 | 35.66167 | 139.09631 | 22890 ft | 346 kts | 263° |
| 2026-05-08 09:23 | 35.66036 | 139.06669 | 23320 ft | 348 kts | 262° |
| 2026-05-08 09:23 | 35.65874 | 139.03695 | 23710 ft | 349 kts | 262° |
| 2026-05-08 09:24 | 35.65708 | 139.00713 | 24099 ft | 351 kts | 262° |
| 2026-05-08 09:24 | 35.65549 | 138.97714 | 24496 ft | 352 kts | 262° |
| 2026-05-08 09:24 | 35.65400 | 138.94699 | 24832 ft | 354 kts | 263° |
| 2026-05-08 09:24 | 35.65256 | 138.91665 | 25110 ft | 357 kts | 262° |
| 2026-05-08 09:25 | 35.65116 | 138.88607 | 25462 ft | 359 kts | 262° |
| 2026-05-08 09:25 | 35.64977 | 138.85545 | 25851 ft | 358 kts | 262° |
| 2026-05-08 09:25 | 35.64840 | 138.82487 | 26232 ft | 359 kts | 263° |
| 2026-05-08 09:25 | 35.64704 | 138.79418 | 26599 ft | 360 kts | 262° |
| 2026-05-08 09:26 | 35.64565 | 138.76338 | 26976 ft | 361 kts | 263° |
| 2026-05-08 09:26 | 35.64419 | 138.73253 | 27331 ft | 362 kts | 262° |
| 2026-05-08 09:26 | 35.64269 | 138.70151 | 27654 ft | 364 kts | 262° |
| 2026-05-08 09:26 | 35.64120 | 138.67048 | 27976 ft | 365 kts | 262° |
| 2026-05-08 09:27 | 35.63969 | 138.63931 | 28297 ft | 366 kts | 262° |
| 2026-05-08 09:27 | 35.63811 | 138.60801 | 28606 ft | 367 kts | 262° |
| 2026-05-08 09:27 | 35.63648 | 138.57665 | 28893 ft | 368 kts | 262° |
| 2026-05-08 09:27 | 35.63483 | 138.54525 | 29173 ft | 369 kts | 262° |
| 2026-05-08 09:28 | 35.63315 | 138.51369 | 29434 ft | 370 kts | 262° |
| 2026-05-08 09:28 | 35.63147 | 138.48204 | 29693 ft | 372 kts | 262° |
| 2026-05-08 09:28 | 35.62978 | 138.45031 | 29929 ft | 373 kts | 262° |
| 2026-05-08 09:28 | 35.62806 | 138.41854 | 30122 ft | 373 kts | 262° |
| 2026-05-08 09:29 | 35.62636 | 138.38664 | 30336 ft | 374 kts | 262° |
| 2026-05-08 09:29 | 35.62466 | 138.35479 | 30613 ft | 373 kts | 262° |
| 2026-05-08 09:29 | 35.62293 | 138.32307 | 30906 ft | 372 kts | 262° |
| 2026-05-08 09:29 | 35.62120 | 138.29146 | 31211 ft | 370 kts | 262° |
| 2026-05-08 09:30 | 35.61948 | 138.25998 | 31512 ft | 369 kts | 262° |
| 2026-05-08 09:30 | 35.61777 | 138.22865 | 31812 ft | 367 kts | 262° |
| 2026-05-08 09:30 | 35.61609 | 138.19739 | 32133 ft | 366 kts | 262° |
| 2026-05-08 09:30 | 35.61440 | 138.16619 | 32472 ft | 365 kts | 261° |
| 2026-05-08 09:31 | 35.61268 | 138.13516 | 32785 ft | 363 kts | 261° |
| 2026-05-08 09:31 | 35.61095 | 138.10422 | 33104 ft | 360 kts | 261° |
| 2026-05-08 09:31 | 35.60923 | 138.07349 | 33362 ft | 361 kts | 261° |
| 2026-05-08 09:31 | 35.60748 | 138.04277 | 33622 ft | 360 kts | 261° |
| 2026-05-08 09:32 | 35.60572 | 138.01206 | 33836 ft | 361 kts | 261° |
| 2026-05-08 09:32 | 35.60396 | 137.98134 | 34032 ft | 360 kts | 261° |
| 2026-05-08 09:32 | 35.60219 | 137.95065 | 34259 ft | 359 kts | 261° |
| 2026-05-08 09:32 | 35.60042 | 137.92008 | 34501 ft | 358 kts | 261° |
| 2026-05-08 09:33 | 35.59864 | 137.88960 | 34720 ft | 358 kts | 261° |
| 2026-05-08 09:33 | 35.59684 | 137.85913 | 34915 ft | 357 kts | 261° |
| 2026-05-08 09:33 | 35.59510 | 137.82880 | 35105 ft | 356 kts | 261° |
| 2026-05-08 09:33 | 35.59336 | 137.79852 | 35319 ft | 355 kts | 261° |
| 2026-05-08 09:34 | 35.59147 | 137.76839 | 35535 ft | 353 kts | 260° |
| 2026-05-08 09:34 | 35.58931 | 137.73843 | 35736 ft | 352 kts | 259° |
| 2026-05-08 09:34 | 35.58701 | 137.70846 | 35810 ft | 352 kts | 259° |
| 2026-05-08 09:35 | 35.58238 | 137.64867 | 35822 ft | 352 kts | 259° |
| 2026-05-08 09:35 | 35.57791 | 137.58890 | 35821 ft | 350 kts | 260° |
| 2026-05-08 09:36 | 35.57309 | 137.52937 | 35825 ft | 348 kts | 256° |
| 2026-05-08 09:36 | 35.56108 | 137.47249 | 35830 ft | 346 kts | 252° |
| 2026-05-08 09:37 | 35.54857 | 137.41537 | 35837 ft | 346 kts | 252° |
| 2026-05-08 09:37 | 35.53605 | 137.35833 | 35845 ft | 346 kts | 252° |
| 2026-05-08 09:38 | 35.52349 | 137.30127 | 35852 ft | 346 kts | 252° |
| 2026-05-08 09:38 | 35.51091 | 137.24426 | 35857 ft | 346 kts | 252° |
| 2026-05-08 09:39 | 35.49829 | 137.18725 | 35854 ft | 345 kts | 252° |
| 2026-05-08 09:39 | 35.48570 | 137.13031 | 35854 ft | 345 kts | 252° |
| 2026-05-08 09:40 | 35.47305 | 137.07340 | 35856 ft | 346 kts | 252° |
| 2026-05-08 09:40 | 35.46258 | 137.02617 | 35856 ft | 345 kts | 252° |
| 2026-05-08 09:41 | 35.44995 | 136.96933 | 35855 ft | 345 kts | 252° |
| 2026-05-08 09:41 | 35.43727 | 136.91260 | 35853 ft | 345 kts | 252° |
| 2026-05-08 09:42 | 35.42459 | 136.85579 | 35854 ft | 345 kts | 252° |
| 2026-05-08 09:42 | 35.41180 | 136.79909 | 35848 ft | 345 kts | 252° |
| 2026-05-08 09:43 | 35.39899 | 136.74235 | 35852 ft | 345 kts | 252° |
| 2026-05-08 09:43 | 35.38621 | 136.68563 | 35850 ft | 345 kts | 252° |
| 2026-05-08 09:44 | 35.37337 | 136.62885 | 35853 ft | 346 kts | 252° |
| 2026-05-08 09:44 | 35.36047 | 136.57204 | 35854 ft | 346 kts | 252° |
| 2026-05-08 09:45 | 35.34756 | 136.51513 | 35855 ft | 347 kts | 252° |
| 2026-05-08 09:45 | 35.33457 | 136.45820 | 35856 ft | 347 kts | 252° |
| 2026-05-08 09:46 | 35.32151 | 136.40114 | 35859 ft | 348 kts | 252° |
| 2026-05-08 09:46 | 35.30845 | 136.34401 | 35868 ft | 348 kts | 252° |
| 2026-05-08 09:47 | 35.29538 | 136.28693 | 35881 ft | 348 kts | 252° |
| 2026-05-08 09:47 | 35.28231 | 136.22993 | 35889 ft | 348 kts | 252° |
| 2026-05-08 09:48 | 35.26917 | 136.17300 | 35900 ft | 347 kts | 252° |
| 2026-05-08 09:48 | 35.25599 | 136.11617 | 35906 ft | 347 kts | 252° |
| 2026-05-08 09:49 | 35.24283 | 136.05947 | 35912 ft | 346 kts | 252° |
| 2026-05-08 09:49 | 35.22972 | 136.00281 | 35920 ft | 346 kts | 253° |
| 2026-05-08 09:50 | 35.21662 | 135.94634 | 35921 ft | 345 kts | 253° |
| 2026-05-08 09:50 | 35.20348 | 135.89008 | 35922 ft | 344 kts | 253° |
| 2026-05-08 09:51 | 35.19031 | 135.83395 | 35920 ft | 343 kts | 253° |
| 2026-05-08 09:51 | 35.17771 | 135.77785 | 35918 ft | 343 kts | 255° |
| 2026-05-08 09:52 | 35.16802 | 135.72085 | 35922 ft | 342 kts | 257° |
| 2026-05-08 09:52 | 35.15917 | 135.66371 | 35924 ft | 342 kts | 257° |
| 2026-05-08 09:53 | 35.14993 | 135.60690 | 35916 ft | 340 kts | 256° |
| 2026-05-08 09:53 | 35.14036 | 135.55027 | 35917 ft | 340 kts | 256° |
| 2026-05-08 09:54 | 35.13073 | 135.49363 | 35910 ft | 340 kts | 256° |
| 2026-05-08 09:54 | 35.12115 | 135.43711 | 35905 ft | 340 kts | 256° |
| 2026-05-08 09:55 | 35.11149 | 135.38062 | 35901 ft | 340 kts | 256° |
| 2026-05-08 09:55 | 35.10184 | 135.32451 | 35902 ft | 340 kts | 256° |
| 2026-05-08 09:56 | 35.09214 | 135.26804 | 35902 ft | 340 kts | 256° |
| 2026-05-08 09:56 | 35.08243 | 135.21159 | 35914 ft | 340 kts | 256° |
| 2026-05-08 09:57 | 35.06778 | 135.12698 | 35912 ft | 339 kts | 256° |
| 2026-05-08 09:57 | 35.05800 | 135.07064 | 35916 ft | 339 kts | 255° |
| 2026-05-08 09:58 | 35.04821 | 135.01430 | 35914 ft | 339 kts | 255° |
| 2026-05-08 09:58 | 35.03832 | 134.95804 | 35907 ft | 339 kts | 256° |
| 2026-05-08 09:59 | 35.02848 | 134.90175 | 35904 ft | 339 kts | 255° |
| 2026-05-08 09:59 | 35.01864 | 134.84544 | 35904 ft | 341 kts | 255° |
| 2026-05-08 10:00 | 35.00869 | 134.78897 | 35899 ft | 340 kts | 256° |
| 2026-05-08 10:00 | 34.99868 | 134.73242 | 35913 ft | 341 kts | 255° |
| 2026-05-08 10:01 | 34.98871 | 134.67589 | 35922 ft | 341 kts | 255° |
| 2026-05-08 10:01 | 34.97782 | 134.61960 | 35940 ft | 341 kts | 254° |
| 2026-05-08 10:02 | 34.96651 | 134.56356 | 35947 ft | 340 kts | 254° |
| 2026-05-08 10:02 | 34.95529 | 134.50737 | 35954 ft | 341 kts | 254° |
| 2026-05-08 10:03 | 34.94418 | 134.45108 | 35951 ft | 342 kts | 254° |
| 2026-05-08 10:03 | 34.93300 | 134.39472 | 35948 ft | 343 kts | 254° |
| 2026-05-08 10:04 | 34.92172 | 134.33825 | 35949 ft | 343 kts | 254° |
| 2026-05-08 10:04 | 34.91040 | 134.28167 | 35948 ft | 344 kts | 254° |
| 2026-05-08 10:05 | 34.89908 | 134.22503 | 35950 ft | 344 kts | 254° |
| 2026-05-08 10:05 | 34.88774 | 134.16846 | 35934 ft | 344 kts | 254° |
| 2026-05-08 10:06 | 34.87629 | 134.11183 | 35932 ft | 345 kts | 254° |
| 2026-05-08 10:06 | 34.86485 | 134.05512 | 35913 ft | 345 kts | 255° |
| 2026-05-08 10:07 | 34.85340 | 133.99830 | 35908 ft | 346 kts | 255° |
| 2026-05-08 10:07 | 34.84191 | 133.94144 | 35899 ft | 346 kts | 255° |
| 2026-05-08 10:08 | 34.83029 | 133.88448 | 35923 ft | 347 kts | 254° |
| 2026-05-08 10:08 | 34.81861 | 133.82746 | 35919 ft | 348 kts | 254° |
| 2026-05-08 10:09 | 34.80665 | 133.77082 | 35924 ft | 348 kts | 254° |
| 2026-05-08 10:09 | 34.79451 | 133.71367 | 35922 ft | 349 kts | 254° |
| 2026-05-08 10:10 | 34.78242 | 133.65648 | 35929 ft | 349 kts | 255° |
| 2026-05-08 10:10 | 34.77028 | 133.59918 | 35927 ft | 350 kts | 255° |
| 2026-05-08 10:11 | 34.75813 | 133.54176 | 35928 ft | 351 kts | 255° |
| 2026-05-08 10:11 | 34.74590 | 133.48425 | 35927 ft | 351 kts | 254° |
| 2026-05-08 10:12 | 34.73359 | 133.42666 | 35939 ft | 352 kts | 254° |
| 2026-05-08 10:12 | 34.72128 | 133.36902 | 35937 ft | 353 kts | 254° |
| 2026-05-08 10:13 | 34.70886 | 133.31128 | 35941 ft | 354 kts | 254° |
| 2026-05-08 10:13 | 34.69637 | 133.25343 | 35940 ft | 354 kts | 254° |
| 2026-05-08 10:14 | 34.68387 | 133.19538 | 35946 ft | 356 kts | 254° |
| 2026-05-08 10:14 | 34.67126 | 133.13723 | 35942 ft | 357 kts | 254° |
| 2026-05-08 10:15 | 34.65859 | 133.07883 | 35944 ft | 358 kts | 254° |
| 2026-05-08 10:15 | 34.64591 | 133.02035 | 35944 ft | 358 kts | 254° |
| 2026-05-08 10:16 | 34.63319 | 132.96177 | 35950 ft | 359 kts | 254° |
| 2026-05-08 10:16 | 34.62039 | 132.90312 | 35958 ft | 360 kts | 254° |
| 2026-05-08 10:17 | 34.60752 | 132.84428 | 35954 ft | 361 kts | 254° |
| 2026-05-08 10:17 | 34.59458 | 132.78530 | 35955 ft | 362 kts | 254° |
| 2026-05-08 10:18 | 34.58157 | 132.72627 | 35954 ft | 363 kts | 254° |
| 2026-05-08 10:18 | 34.56846 | 132.66708 | 35945 ft | 364 kts | 254° |
| 2026-05-08 10:19 | 34.55540 | 132.60776 | 35948 ft | 364 kts | 254° |
| 2026-05-08 10:20 | 34.53565 | 132.51853 | 35951 ft | 366 kts | 254° |
| 2026-05-08 10:20 | 34.52229 | 132.45899 | 35953 ft | 366 kts | 254° |
| 2026-05-08 10:21 | 34.50893 | 132.39929 | 35965 ft | 367 kts | 254° |
| 2026-05-08 10:21 | 34.49565 | 132.33949 | 35962 ft | 368 kts | 254° |
| 2026-05-08 10:22 | 34.48441 | 132.28932 | 35976 ft | 369 kts | 254° |
| 2026-05-08 10:22 | 34.47085 | 132.22927 | 35977 ft | 369 kts | 254° |
| 2026-05-08 10:23 | 34.45727 | 132.16916 | 35983 ft | 370 kts | 254° |
| 2026-05-08 10:23 | 34.44368 | 132.10898 | 35981 ft | 370 kts | 254° |
| 2026-05-08 10:24 | 34.43005 | 132.04876 | 35979 ft | 371 kts | 254° |
| 2026-05-08 10:24 | 34.41638 | 131.98841 | 35968 ft | 372 kts | 254° |
| 2026-05-08 10:25 | 34.40262 | 131.92804 | 35651 ft | 373 kts | 254° |
| 2026-05-08 10:25 | 34.39575 | 131.89796 | 34217 ft | 379 kts | 254° |
| 2026-05-08 10:25 | 34.38865 | 131.86694 | 32585 ft | 386 kts | 254° |
| 2026-05-08 10:25 | 34.38148 | 131.83564 | 31254 ft | 384 kts | 254° |
| 2026-05-08 10:26 | 34.37438 | 131.80466 | 30196 ft | 379 kts | 254° |
| 2026-05-08 10:26 | 34.36747 | 131.77453 | 30243 ft | 359 kts | 254° |
| 2026-05-08 10:26 | 34.36089 | 131.74568 | 30900 ft | 351 kts | 254° |
| 2026-05-08 10:26 | 34.35450 | 131.71748 | 31547 ft | 344 kts | 255° |
| 2026-05-08 10:27 | 34.34811 | 131.68941 | 31769 ft | 350 kts | 254° |
| 2026-05-08 10:27 | 34.34148 | 131.66081 | 31894 ft | 356 kts | 254° |
| 2026-05-08 10:27 | 34.33470 | 131.63174 | 32012 ft | 362 kts | 254° |
| 2026-05-08 10:28 | 34.32087 | 131.57226 | 31995 ft | 370 kts | 254° |
| 2026-05-08 10:28 | 34.30695 | 131.51211 | 31991 ft | 372 kts | 254° |
| 2026-05-08 10:29 | 34.29291 | 131.45173 | 31996 ft | 373 kts | 254° |
| 2026-05-08 10:29 | 34.27882 | 131.39137 | 31660 ft | 374 kts | 254° |
| 2026-05-08 10:29 | 34.27175 | 131.36127 | 31076 ft | 371 kts | 254° |
| 2026-05-08 10:30 | 34.26476 | 131.33134 | 30493 ft | 369 kts | 254° |
| 2026-05-08 10:30 | 34.25783 | 131.30157 | 29897 ft | 366 kts | 255° |
| 2026-05-08 10:30 | 34.25096 | 131.27209 | 29285 ft | 363 kts | 254° |
| 2026-05-08 10:30 | 34.24411 | 131.24286 | 28728 ft | 359 kts | 254° |
| 2026-05-08 10:31 | 34.23732 | 131.21392 | 28179 ft | 355 kts | 254° |
| 2026-05-08 10:31 | 34.23057 | 131.18532 | 27630 ft | 352 kts | 255° |
| 2026-05-08 10:31 | 34.22390 | 131.15697 | 27096 ft | 349 kts | 254° |
| 2026-05-08 10:31 | 34.21730 | 131.12892 | 26575 ft | 346 kts | 255° |
| 2026-05-08 10:32 | 34.21074 | 131.10107 | 26070 ft | 343 kts | 254° |
| 2026-05-08 10:32 | 34.20419 | 131.07343 | 25566 ft | 341 kts | 254° |
| 2026-05-08 10:32 | 34.19769 | 131.04605 | 25087 ft | 337 kts | 254° |
| 2026-05-08 10:32 | 34.19117 | 131.01892 | 24601 ft | 335 kts | 252° |
| 2026-05-08 10:33 | 34.18240 | 130.99285 | 24125 ft | 335 kts | 248° |
| 2026-05-08 10:33 | 34.17322 | 130.96709 | 23651 ft | 333 kts | 248° |
| 2026-05-08 10:33 | 34.16409 | 130.94139 | 23101 ft | 332 kts | 248° |
| 2026-05-08 10:33 | 34.15514 | 130.91620 | 22634 ft | 329 kts | 248° |
| 2026-05-08 10:34 | 34.14606 | 130.89068 | 22259 ft | 326 kts | 251° |
| 2026-05-08 10:34 | 34.13711 | 130.86557 | 21677 ft | 325 kts | 251° |
| 2026-05-08 10:34 | 34.12823 | 130.84069 | 21201 ft | 321 kts | 251° |
| 2026-05-08 10:34 | 34.11943 | 130.81603 | 20718 ft | 318 kts | 251° |
| 2026-05-08 10:35 | 34.11065 | 130.79199 | 20257 ft | 316 kts | 251° |
| 2026-05-08 10:35 | 34.10154 | 130.76756 | 19777 ft | 314 kts | 251° |
| 2026-05-08 10:35 | 34.09257 | 130.74365 | 19298 ft | 312 kts | 251° |
| 2026-05-08 10:35 | 34.08361 | 130.71986 | 18834 ft | 311 kts | 251° |
| 2026-05-08 10:36 | 34.07478 | 130.69644 | 18375 ft | 310 kts | 251° |
| 2026-05-08 10:36 | 34.06587 | 130.67282 | 17860 ft | 309 kts | 251° |
| 2026-05-08 10:36 | 34.05701 | 130.64928 | 17388 ft | 307 kts | 251° |
| 2026-05-08 10:36 | 34.04824 | 130.62595 | 16939 ft | 305 kts | 251° |
| 2026-05-08 10:37 | 34.03954 | 130.60274 | 16496 ft | 303 kts | 251° |
| 2026-05-08 10:37 | 34.03090 | 130.57966 | 16065 ft | 302 kts | 251° |
| 2026-05-08 10:37 | 34.02228 | 130.55665 | 15634 ft | 300 kts | 251° |
| 2026-05-08 10:37 | 34.01374 | 130.53396 | 15440 ft | 292 kts | 251° |
| 2026-05-08 10:38 | 34.00545 | 130.51208 | 15313 ft | 282 kts | 251° |
| 2026-05-08 10:38 | 33.99700 | 130.49098 | 15127 ft | 278 kts | 245° |
| 2026-05-08 10:38 | 33.98559 | 130.47181 | 14849 ft | 283 kts | 239° |
| 2026-05-08 10:38 | 33.97349 | 130.45302 | 14447 ft | 285 kts | 239° |
| 2026-05-08 10:39 | 33.96123 | 130.43413 | 14027 ft | 287 kts | 238° |
| 2026-05-08 10:39 | 33.94889 | 130.41513 | 13613 ft | 287 kts | 240° |
| 2026-05-08 10:39 | 33.93916 | 130.39463 | 13163 ft | 280 kts | 255° |
| 2026-05-08 10:39 | 33.93483 | 130.37239 | 13009 ft | 268 kts | 269° |
| 2026-05-08 10:40 | 33.93534 | 130.35019 | 13023 ft | 265 kts | 279° |
| 2026-05-08 10:40 | 33.93756 | 130.32815 | 13021 ft | 265 kts | 279° |
| 2026-05-08 10:40 | 33.93973 | 130.30611 | 13022 ft | 265 kts | 278° |
| 2026-05-08 10:40 | 33.94182 | 130.28459 | 13022 ft | 252 kts | 279° |
| 2026-05-08 10:41 | 33.94376 | 130.26403 | 13019 ft | 244 kts | 276° |
| 2026-05-08 10:41 | 33.94365 | 130.24364 | 13023 ft | 243 kts | 271° |
| 2026-05-08 10:41 | 33.94313 | 130.22329 | 13029 ft | 243 kts | 271° |
| 2026-05-08 10:41 | 33.94264 | 130.20292 | 13025 ft | 243 kts | 272° |
| 2026-05-08 10:42 | 33.94217 | 130.18259 | 13027 ft | 243 kts | 272° |
| 2026-05-08 10:42 | 33.94170 | 130.16222 | 13030 ft | 243 kts | 272° |
| 2026-05-08 10:42 | 33.93970 | 130.14194 | 13031 ft | 247 kts | 259° |
| 2026-05-08 10:42 | 33.93327 | 130.12249 | 13033 ft | 252 kts | 252° |
| 2026-05-08 10:43 | 33.92601 | 130.10329 | 13033 ft | 252 kts | 252° |
| 2026-05-08 10:43 | 33.91877 | 130.08406 | 13036 ft | 252 kts | 252° |
| 2026-05-08 10:43 | 33.91154 | 130.06478 | 13032 ft | 252 kts | 252° |
| 2026-05-08 10:43 | 33.90414 | 130.04559 | 13035 ft | 255 kts | 247° |
| 2026-05-08 10:44 | 33.89335 | 130.02828 | 13031 ft | 264 kts | 232° |
| 2026-05-08 10:44 | 33.87988 | 130.01310 | 13031 ft | 266 kts | 231° |
| 2026-05-08 10:44 | 33.86635 | 129.99792 | 13033 ft | 266 kts | 231° |
| 2026-05-08 10:44 | 33.85288 | 129.98273 | 13029 ft | 266 kts | 231° |
| 2026-05-08 10:45 | 33.83936 | 129.96751 | 13030 ft | 267 kts | 229° |
| 2026-05-08 10:45 | 33.82389 | 129.95457 | 13029 ft | 277 kts | 214° |
| 2026-05-08 10:45 | 33.80583 | 129.94580 | 13029 ft | 282 kts | 208° |
| 2026-05-08 10:45 | 33.78729 | 129.93793 | 13028 ft | 286 kts | 201° |
| 2026-05-08 10:46 | 33.76697 | 129.93703 | 13029 ft | 302 kts | 174° |
| 2026-05-08 10:46 | 33.74743 | 129.94719 | 13020 ft | 315 kts | 146° |
| 2026-05-08 10:46 | 33.73320 | 129.96728 | 12731 ft | 319 kts | 114° |
| 2026-05-08 10:46 | 33.72753 | 129.99273 | 12493 ft | 316 kts | 96° |
| 2026-05-08 10:47 | 33.72405 | 130.01881 | 12255 ft | 315 kts | 96° |
| 2026-05-08 10:47 | 33.72056 | 130.04472 | 12019 ft | 314 kts | 96° |
| 2026-05-08 10:47 | 33.71702 | 130.07057 | 11782 ft | 312 kts | 96° |
| 2026-05-08 10:47 | 33.71343 | 130.09625 | 11551 ft | 311 kts | 97° |
| 2026-05-08 10:48 | 33.70981 | 130.12178 | 11317 ft | 309 kts | 97° |
| 2026-05-08 10:48 | 33.70621 | 130.14719 | 11086 ft | 308 kts | 97° |
| 2026-05-08 10:48 | 33.70260 | 130.17247 | 10852 ft | 307 kts | 98° |
| 2026-05-08 10:48 | 33.69617 | 130.19684 | 10609 ft | 307 kts | 115° |
| 2026-05-08 10:49 | 33.68468 | 130.21827 | 10374 ft | 305 kts | 132° |
| 2026-05-08 10:49 | 33.66900 | 130.23513 | 10134 ft | 301 kts | 147° |
| 2026-05-08 10:49 | 33.65207 | 130.24938 | 9899 ft | 300 kts | 147° |
| 2026-05-08 10:49 | 33.63502 | 130.26377 | 9634 ft | 299 kts | 147° |
| 2026-05-08 10:50 | 33.61807 | 130.27808 | 9377 ft | 297 kts | 147° |
| 2026-05-08 10:50 | 33.60126 | 130.29229 | 9109 ft | 295 kts | 146° |
| 2026-05-08 10:50 | 33.58453 | 130.30647 | 8844 ft | 293 kts | 146° |
| 2026-05-08 10:50 | 33.56792 | 130.32054 | 8595 ft | 291 kts | 146° |
| 2026-05-08 10:51 | 33.55104 | 130.33451 | 8335 ft | 290 kts | 147° |
| 2026-05-08 10:51 | 33.53443 | 130.34751 | 8089 ft | 289 kts | 148° |
| 2026-05-08 10:51 | 33.51754 | 130.36039 | 7838 ft | 287 kts | 148° |
| 2026-05-08 10:51 | 33.50053 | 130.37329 | 7582 ft | 285 kts | 148° |
| 2026-05-08 10:52 | 33.48387 | 130.38596 | 7334 ft | 282 kts | 148° |
| 2026-05-08 10:52 | 33.46733 | 130.39860 | 7089 ft | 282 kts | 147° |
| 2026-05-08 10:52 | 33.45104 | 130.41108 | 6846 ft | 281 kts | 147° |
| 2026-05-08 10:52 | 33.43439 | 130.42386 | 6595 ft | 280 kts | 147° |
| 2026-05-08 10:53 | 33.41825 | 130.43626 | 6360 ft | 278 kts | 147° |
| 2026-05-08 10:53 | 33.40207 | 130.44872 | 6096 ft | 275 kts | 147° |
| 2026-05-08 10:53 | 33.38594 | 130.46114 | 5839 ft | 276 kts | 147° |
| 2026-05-08 10:53 | 33.36978 | 130.47356 | 5583 ft | 275 kts | 148° |
| 2026-05-08 10:54 | 33.35375 | 130.48586 | 5327 ft | 273 kts | 147° |
| 2026-05-08 10:54 | 33.33782 | 130.49809 | 5074 ft | 271 kts | 147° |
| 2026-05-08 10:54 | 33.32198 | 130.51025 | 4827 ft | 270 kts | 148° |
| 2026-05-08 10:54 | 33.30740 | 130.52372 | 4574 ft | 261 kts | 127° |
| 2026-05-08 10:55 | 33.29980 | 130.54269 | 4313 ft | 249 kts | 95° |
| 2026-05-08 10:55 | 33.30088 | 130.56252 | 4103 ft | 234 kts | 65° |
| 2026-05-08 10:55 | 33.30826 | 130.57967 | 4040 ft | 232 kts | 54° |
| 2026-05-08 10:55 | 33.31640 | 130.59643 | 4042 ft | 233 kts | 53° |
| 2026-05-08 10:56 | 33.32736 | 130.60974 | 4041 ft | 221 kts | 21° |
| 2026-05-08 10:56 | 33.34182 | 130.61352 | 4043 ft | 211 kts | 350° |
| 2026-05-08 10:56 | 33.35537 | 130.60795 | 4043 ft | 208 kts | 328° |
| 2026-05-08 10:56 | 33.36870 | 130.59877 | 4041 ft | 229 kts | 328° |
| 2026-05-08 10:57 | 33.38269 | 130.58919 | 4043 ft | 233 kts | 328° |
| 2026-05-08 10:57 | 33.39683 | 130.57955 | 3960 ft | 236 kts | 329° |
| 2026-05-08 10:57 | 33.42364 | 130.56134 | 3419 ft | 207 kts | 328° |
| 2026-05-08 10:58 | 33.43584 | 130.55304 | 3157 ft | 196 kts | 328° |
| 2026-05-08 10:58 | 33.44740 | 130.54517 | 2899 ft | 187 kts | 327° |
| 2026-05-08 10:58 | 33.45852 | 130.53760 | 2682 ft | 182 kts | 327° |
| 2026-05-08 10:58 | 33.46944 | 130.53016 | 2416 ft | 178 kts | 327° |
| 2026-05-08 10:59 | 33.48006 | 130.52293 | 2166 ft | 171 kts | 327° |
| 2026-05-08 10:59 | 33.48999 | 130.51619 | 1947 ft | 157 kts | 326° |
| 2026-05-08 10:59 | 33.49898 | 130.51007 | 1764 ft | 143 kts | 326° |
| 2026-05-08 10:59 | 33.50743 | 130.50430 | 1574 ft | 138 kts | 326° |
| 2026-05-08 11:00 | 33.51570 | 130.49865 | 1390 ft | 136 kts | 327° |
| 2026-05-08 11:00 | 33.52390 | 130.49306 | 1208 ft | 137 kts | 326° |
| 2026-05-08 11:00 | 33.53219 | 130.48739 | 1034 ft | 137 kts | 327° |
| 2026-05-08 11:00 | 33.54040 | 130.48179 | 847 ft | 136 kts | 326° |
| 2026-05-08 11:01 | 33.54587 | 130.47806 | 737 ft | 137 kts | 326° |
| 2026-05-08 11:01 | 33.55421 | 130.47236 | 556 ft | 139 kts | 328° |
| 2026-05-08 11:01 | 33.56249 | 130.46672 | 371 ft | 134 kts | 327° |
| 2026-05-08 11:01 | 33.57331 | 130.45925 | 145 ft | 134 kts | 327° |
| 2026-05-08 11:02 | 33.57867 | 130.45563 | 58 ft | 132 kts | 328° |
| 2026-05-08 11:02 | 33.59045 | 130.44760 | 28 ft | 51 kts | 331° |
| 2026-05-08 11:02 | 33.59242 | 130.44626 | 25 ft | 20 kts | 330° |
| 2026-05-08 11:03 | 33.59363 | 130.44546 | 27 ft | 20 kts | 332° |
| 2026-05-08 11:03 | 33.59496 | 130.44496 | 26 ft | 21 kts | 351° |
| 2026-05-08 11:03 | 33.59628 | 130.44489 | 26 ft | 13 kts | 1° |
| 2026-05-08 11:03 | 33.59665 | 130.44509 | 26 ft | 0 kts | 45° |
| 2026-05-08 11:06 | 33.59666 | 130.44509 | 26 ft | 1 kts | 45° |
| 2026-05-08 11:06 | 33.59697 | 130.44532 | 25 ft | 6 kts | 15° |
| 2026-05-08 11:06 | 33.59733 | 130.44530 | 27 ft | 5 kts | 346° |
| 2026-05-08 11:06 | 33.59761 | 130.44515 | 24 ft | 6 kts | 335° |
| 2026-05-08 11:07 | 33.59788 | 130.44534 | 24 ft | 4 kts | 58° |
| 2026-05-08 11:07 | 33.59806 | 130.44569 | 24 ft | 5 kts | 59° |
| 2026-05-08 11:07 | 33.59821 | 130.44601 | 26 ft | 4 kts | 60° |
| 2026-05-08 11:07 | 33.59831 | 130.44622 | 24 ft | 1 kts | 60° |
| 2026-05-08 11:08 | 33.59834 | 130.44628 | 25 ft | 1 kts | 60° |
| 2026-05-08 11:08 | 33.59836 | 130.44633 | 8 ft | 0 kts | 60° |
| 2026-05-08 11:08 | 33.59837 | 130.44635 | 7 ft | 0 kts | 60° |
| 2026-05-08 11:08 | 33.59838 | 130.44636 | 7 ft | 0 kts | 60° |